Terminal Aerodrome Forecast
Issued by NWS Tulsa, OK

Home | Current Version | Previous Version | Text Only | Print | Product List | Glossary On
Versions: 1 2 3 4 5 6 7 8 9 10 11 12 13 14 15
283
FTUS44 KTSA 231400 AAA
TAFTUL
TAF AMD
KTUL 231400Z 2314/2412 14014KT P6SM OVC021
     FM231700 16020G30KT P6SM SCT060
     FM240000 16018G26KT P6SM SCT250
     FM240900 17013G22KT P6SM OVC100=

USA.gov is the U.S. government's official web portal to all federal, state and local government web resources and services.